Pueblo Of Acoma, NM (87034)

10:58 PM MDT on August 25, 2016 (GMT -0600)
Grants-Milan Municipal | | Change Station

Elev 6519 ft 35.17 °N, 107.90 °W | Updated 23 minutes ago

Scattered Clouds
Scattered Clouds
58 °F
Feels Like 58 °F
N
10
Wind Variable Wind from NW
Gusts 16 mph

Today
High -- | Low -- °F
--% Chance of Precip.
Yesterday
High -- | Low -- °F
Precip. -- in
Pressure 30.29 in
Visibility 10.0 miles
Clouds Scattered Clouds 10000 ft
Dew Point 43 °F
Humidity 56%
Rainfall 0.00 in
Snow Depth Not available.
6:38 AM 7:45 PM
Last Quarter, 38% visible
METAR KGNT 260435Z AUTO 32009G14KT 10SM SCT100 15/06 A3029 RMK AO2 LTG DSNT N T01470060
Pressure 30.29 in
Visibility 10.0 miles
Clouds Scattered Clouds 10000 ft
Dew Point 43 °F
Humidity 56%
Rainfall 0.00 in
Snow Depth Not available.
6:38 AM 7:45 PM
Last Quarter, 38% visible
METAR KGNT 260435Z AUTO 32009G14KT 10SM SCT100 15/06 A3029 RMK AO2 LTG DSNT N T01470060
A tropical disturbance pushing toward the Bahamas, is expected to develop into a tropical depression or storm, and will likely target Florida and the Gulf Coast this weekend into next week.

Right now, the disturbance remains a broad area of low pressure pushing through the Dominican Republic and Haiti, headed toward the southeast Bahamas. Rainfall totals over 3 inches (with locally higher amounts) are expected in HispaƱiola, particularly over elevated terrain.

10-Day Weather Forecast

Almanac

Astronomy

Aug. 25, 2016 Rise Set
Actual Time
Civil Twilight
Nautical Twilight
Astronomical Twilight
Moon
Length of Visible Light
Length of Day
Tomorrow will be .
, % of the Moon is Illuminated

Today's Extremes

State Highs State Lows

Community

WunderPhotos

Upload Photos

1,935,056 photos uploaded!

WunderBlog® & News

Nearby

Air Quality

  Air Quality AQ Index Pollutant
Not available.

Snow Depth

Station Depth Elevation

Earthquake Activity

City Distance Mag. Time & Date
Minimum magnitude displayed is 2.5.

Coastal Water Temperatures

Place Temperature

Stations

Nearby Weather Stations

Station Location Temp. Windchill Dew Point Humidity Wind Precip. Elev Updated Type
                   

Watches & Warnings

There are currently no watches in effect.